Time;durP1;ratioP1;P1;durP2;ratioP2;P2;SDS_P1;SDS_P2;PMS_P1;PMS_P2;Temp;Humidity;BMP_temperature;BMP_pressure;BME280_temperature;BME280_humidity;BME280_pressure;Samples;Min_cycle;Max_cycle;Signal;HPM_P1;HPM_P2
2021/03/01 00:02:18;;;;;;;185.88;21.42;;;;;;;0.86;83.11;102078.03;5086854;28;20528;-62
2021/03/01 00:04:43;;;;;;;96.07;14.32;;;;;;;0.82;83.26;102070.94;5087074;28;20025;-62
2021/03/01 00:07:09;;;;;;;187.77;23.42;;;;;;;0.84;83.35;102072.81;5086594;28;20016;-62
2021/03/01 00:09:34;;;;;;;137.50;17.05;;;;;;;0.79;83.17;102071.66;5086950;28;20037;-62
2021/03/01 00:11:59;;;;;;;137.15;18.50;;;;;;;0.71;83.36;102078.00;5086584;28;20031;-62
2021/03/01 00:14:25;;;;;;;119.80;15.68;;;;;;;0.69;83.14;102075.34;5087155;28;20017;-62
2021/03/01 00:16:50;;;;;;;197.52;22.77;;;;;;;0.61;83.21;102071.44;5086023;28;20448;-62
2021/03/01 00:19:16;;;;;;;139.07;17.95;;;;;;;0.57;83.50;102075.50;5086411;28;20271;-62
2021/03/01 00:21:41;;;;;;;212.38;21.73;;;;;;;0.59;83.74;102070.50;5086277;28;20440;-62
2021/03/01 00:24:07;;;;;;;105.90;14.77;;;;;;;0.60;83.87;102079.91;5086652;28;20029;-63
2021/03/01 00:26:32;;;;;;;267.33;30.90;;;;;;;0.67;83.79;102076.91;5085784;28;20027;-61
2021/03/01 00:28:58;;;;;;;175.25;24.70;;;;;;;0.63;83.79;102081.75;5086151;28;20048;-61
2021/03/01 00:31:23;;;;;;;127.05;16.40;;;;;;;0.63;83.70;102080.09;5086056;28;20035;-62
2021/03/01 00:33:49;;;;;;;206.48;20.83;;;;;;;0.64;84.06;102081.84;5086421;28;20032;-62
2021/03/01 00:36:14;;;;;;;237.80;27.90;;;;;;;0.67;84.04;102087.16;5086036;28;20031;-61
2021/03/01 00:38:40;;;;;;;169.85;20.65;;;;;;;0.65;83.95;102080.19;5086063;28;20031;-61
2021/03/01 00:41:05;;;;;;;193.68;23.65;;;;;;;0.66;84.12;102084.50;5085808;28;20025;-62
2021/03/01 00:43:34;;;;;;;177.50;23.27;;;;;;;0.66;84.22;102084.50;5086185;28;20020;-61
2021/03/01 00:46:00;;;;;;;75.05;13.50;;;;;;;0.66;84.34;102085.38;5085896;28;20024;-61
2021/03/01 00:48:25;;;;;;;162.40;22.33;;;;;;;0.68;84.32;102082.94;5085903;28;20054;-61
2021/03/01 00:50:51;;;;;;;222.70;24.55;;;;;;;0.72;84.28;102084.84;5085679;28;20046;-60
2021/03/01 00:53:27;;;;;;;392.38;40.33;;;;;;;0.64;84.29;102084.41;5085910;28;20024;-61
2021/03/01 00:55:52;;;;;;;288.67;31.02;;;;;;;0.73;84.07;102091.75;5085074;28;20025;-61
2021/03/01 00:58:18;;;;;;;287.35;31.80;;;;;;;0.74;83.83;102091.84;5085584;28;20016;-60
2021/03/01 01:00:45;;;;;;;253.18;31.00;;;;;;;0.73;83.81;102096.88;5085857;28;20031;-61
2021/03/01 01:03:10;;;;;;;326.60;31.27;;;;;;;0.73;83.67;102091.75;5085900;28;20025;-61
2021/03/01 01:05:36;;;;;;;279.23;32.28;;;;;;;0.73;83.59;102092.66;5085736;28;20436;-61
2021/03/01 01:08:01;;;;;;;249.30;25.45;;;;;;;0.68;83.44;102088.94;5085392;28;20408;-61
2021/03/01 01:10:27;;;;;;;157.30;23.40;;;;;;;0.70;83.30;102092.44;5085434;28;20024;-60
2021/03/01 01:12:53;;;;;;;233.93;26.30;;;;;;;0.71;83.64;102094.22;5085577;28;20028;-61
2021/03/01 01:15:18;;;;;;;138.73;16.00;;;;;;;0.65;83.63;102088.75;5085514;28;20119;-61
2021/03/01 01:17:44;;;;;;;297.63;30.77;;;;;;;0.69;83.57;102085.56;5085341;28;20032;-61
2021/03/01 01:20:11;;;;;;;118.85;14.18;;;;;;;0.65;83.69;102080.19;5085574;28;20063;-61
2021/03/01 01:22:36;;;;;;;205.32;22.17;;;;;;;0.63;84.13;102075.00;5085612;28;20052;-60
2021/03/01 01:25:04;;;;;;;163.27;19.92;;;;;;;0.61;84.17;102076.56;5085743;28;20027;-60
2021/03/01 01:27:29;;;;;;;180.30;21.08;;;;;;;0.63;84.04;102062.22;5085247;28;20049;-60
2021/03/01 01:29:54;;;;;;;143.82;15.50;;;;;;;0.58;84.19;102058.47;5084227;28;20072;-60
2021/03/01 01:32:20;;;;;;;145.45;18.25;;;;;;;0.55;84.00;102048.09;5085384;28;20021;-60
2021/03/01 01:34:45;;;;;;;163.68;18.40;;;;;;;0.51;84.22;102048.69;5085619;28;20284;-60
2021/03/01 01:37:14;;;;;;;219.77;24.23;;;;;;;0.43;84.32;102055.91;5085195;28;20461;-60
2021/03/01 01:39:39;;;;;;;216.55;25.52;;;;;;;0.40;84.52;102041.25;5067515;28;20021;-60
2021/03/01 01:42:04;;;;;;;151.27;16.42;;;;;;;0.40;84.73;102040.41;5085244;28;20048;-59
2021/03/01 01:44:30;;;;;;;220.13;24.67;;;;;;;0.41;84.76;102039.59;5085428;28;20028;-60
2021/03/01 01:46:55;;;;;;;280.45;28.60;;;;;;;0.42;84.84;102043.91;5085120;28;20031;-59
2021/03/01 01:49:21;;;;;;;84.38;12.18;;;;;;;0.40;84.86;102045.50;5085266;28;20024;-60
2021/03/01 01:51:46;;;;;;;252.55;26.50;;;;;;;0.39;85.20;102054.84;5084900;28;20027;-60
2021/03/01 01:54:12;;;;;;;142.95;18.50;;;;;;;0.40;85.11;102058.28;5085322;28;20024;-60
2021/03/01 01:56:38;;;;;;;211.27;21.27;;;;;;;0.42;85.27;102049.00;5084742;28;20028;-61
2021/03/01 01:59:04;;;;;;;168.52;18.52;;;;;;;0.42;85.16;102049.91;5085207;28;20039;-60
2021/03/01 02:01:30;;;;;;;330.30;27.27;;;;;;;0.44;84.98;102043.22;5084888;28;20020;-60
2021/03/01 02:04:02;;;;;;;102.47;14.50;;;;;;;0.46;85.08;102039.06;5084885;28;20465;-60
2021/03/01 02:06:34;;;;;;;109.32;15.15;;;;;;;0.48;84.91;102044.28;5066897;28;20032;-60
2021/03/01 02:09:31;;;;;;;146.15;18.08;;;;;;;0.53;84.99;102042.88;5083933;28;20025;-60
2021/03/01 02:12:11;;;;;;;108.70;12.50;;;;;;;0.54;85.07;102046.31;5022212;28;20044;-60
2021/03/01 02:14:56;;;;;;;94.15;13.25;;;;;;;0.55;85.05;102037.84;5022420;28;20053;-60
2021/03/01 02:17:22;;;;;;;76.32;11.15;;;;;;;0.55;84.95;102035.31;5022202;28;20162;-60
2021/03/01 02:19:47;;;;;;;59.38;11.23;;;;;;;0.56;84.85;102047.31;5022262;28;20066;-60
2021/03/01 02:22:12;;;;;;;112.30;17.73;;;;;;;0.58;84.89;102040.59;5022227;28;20025;-60
2021/03/01 02:24:44;;;;;;;131.30;16.65;;;;;;;0.56;85.04;102039.63;5022072;28;20028;-60
2021/03/01 02:27:21;;;;;;;160.30;19.15;;;;;;;0.54;85.01;102047.22;5021156;28;20029;-60
2021/03/01 02:29:47;;;;;;;79.68;12.65;;;;;;;0.53;84.90;102044.56;5021666;28;20054;-60
2021/03/01 02:32:15;;;;;;;85.75;15.60;;;;;;;0.57;84.99;102036.28;5021583;28;20040;-60
2021/03/01 02:34:42;;;;;;;153.10;17.55;;;;;;;0.57;85.09;102034.63;5021730;28;20112;-60
2021/03/01 02:37:11;;;;;;;96.78;14.38;;;;;;;0.61;84.84;102031.44;5021521;28;20060;-60
2021/03/01 02:39:42;;;;;;;86.45;12.48;;;;;;;0.65;84.91;102036.72;5021542;28;20032;-60
2021/03/01 02:42:08;;;;;;;71.55;12.80;;;;;;;0.58;84.97;102035.47;5021308;28;20030;-60
2021/03/01 02:44:36;;;;;;;98.28;15.18;;;;;;;0.64;84.72;102040.94;5021490;28;20068;-60
2021/03/01 02:47:01;;;;;;;116.80;15.45;;;;;;;0.64;84.89;102042.66;5021223;28;20068;-60
2021/03/01 02:49:28;;;;;;;139.32;18.55;;;;;;;0.64;84.88;102033.28;5053494;28;20066;-60
2021/03/01 02:51:55;;;;;;;59.72;12.88;;;;;;;0.64;84.70;102034.97;5083488;28;20564;-60
2021/03/01 02:54:21;;;;;;;95.65;13.82;;;;;;;0.61;84.67;102039.09;5083730;28;20058;-60
2021/03/01 02:56:48;;;;;;;220.80;23.73;;;;;;;0.61;84.74;102030.53;5083279;28;20094;-61
2021/03/01 02:59:15;;;;;;;94.70;15.52;;;;;;;0.57;84.74;102029.50;5065565;28;20024;-60
2021/03/01 03:01:42;;;;;;;63.35;9.45;;;;;;;0.51;84.74;102023.16;5083508;28;20638;-60
2021/03/01 03:04:08;;;;;;;105.50;15.40;;;;;;;0.49;84.91;102023.06;5083704;28;20036;-60
2021/03/01 03:06:36;;;;;;;32.58;7.63;;;;;;;0.47;85.22;102022.06;5083410;28;20028;-60
2021/03/01 03:09:03;;;;;;;88.28;9.23;;;;;;;0.46;85.23;102010.09;5083689;28;20024;-60
2021/03/01 03:11:31;;;;;;;105.97;14.60;;;;;;;0.45;85.33;102011.75;5083206;28;20078;-61
2021/03/01 03:13:57;;;;;;;134.32;21.52;;;;;;;0.46;85.09;102005.84;5083562;28;20028;-61
2021/03/01 03:16:27;;;;;;;82.07;11.45;;;;;;;0.44;85.38;102001.44;5083451;28;20070;-60
2021/03/01 03:18:57;;;;;;;123.20;11.73;;;;;;;0.41;85.24;101996.16;5065128;28;20029;-61
2021/03/01 03:21:23;;;;;;;164.43;17.08;;;;;;;0.35;85.10;101994.13;5083396;28;20043;-61
2021/03/01 03:23:49;;;;;;;171.10;17.45;;;;;;;0.28;84.99;101990.31;5083219;28;20024;-61
2021/03/01 03:26:15;;;;;;;192.13;17.63;;;;;;;0.27;84.84;101986.00;5083181;28;20051;-61
2021/03/01 03:28:45;;;;;;;332.50;34.63;;;;;;;0.23;85.07;101984.94;5083111;28;20062;-61
2021/03/01 03:31:11;;;;;;;253.98;26.08;;;;;;;0.18;85.27;101988.00;5083085;28;20070;-61
2021/03/01 03:33:38;;;;;;;207.52;24.08;;;;;;;0.15;85.50;102004.03;5083228;28;20035;-61
2021/03/01 03:36:04;;;;;;;343.88;34.70;;;;;;;0.14;85.43;102009.03;5083218;28;20036;-61
2021/03/01 03:38:33;;;;;;;173.73;16.23;;;;;;;0.10;85.59;102006.31;5083139;28;20380;-61
2021/03/01 03:41:01;;;;;;;30.80;7.50;;;;;;;0.12;85.72;102008.94;5083350;28;20126;-61
2021/03/01 03:43:28;;;;;;;46.08;8.52;;;;;;;0.21;85.82;102009.50;5083651;28;20020;-60
2021/03/01 03:45:57;;;;;;;47.97;8.27;;;;;;;0.32;86.08;102015.25;5082911;28;20016;-63
2021/03/01 03:48:25;;;;;;;44.60;7.75;;;;;;;0.45;86.39;102015.97;5082965;28;20385;-61
2021/03/01 03:50:59;;;;;;;36.72;6.20;;;;;;;0.56;86.71;102008.97;5082892;28;20036;-60
2021/03/01 03:53:27;;;;;;;54.80;9.68;;;;;;;0.66;87.17;102008.69;5083056;28;20109;-61
2021/03/01 03:55:56;;;;;;;41.67;8.70;;;;;;;0.78;87.04;102005.09;5082726;28;20035;-61
2021/03/01 03:58:27;;;;;;;53.50;9.98;;;;;;;0.87;86.93;102008.19;5083060;28;20222;-61
2021/03/01 04:00:54;;;;;;;34.65;8.75;;;;;;;0.91;86.74;102007.56;5082904;28;20029;-61
2021/03/01 04:03:24;;;;;;;30.35;6.13;;;;;;;0.92;86.88;102005.88;5082906;28;20048;-61
2021/03/01 04:05:53;;;;;;;48.60;7.18;;;;;;;0.91;86.64;102004.13;5082859;28;20029;-61
2021/03/01 04:08:20;;;;;;;25.17;5.75;;;;;;;0.93;86.77;102002.53;5082845;28;20024;-61
2021/03/01 04:10:53;;;;;;;45.22;9.18;;;;;;;0.98;86.81;101996.91;5082483;28;20442;-61
2021/03/01 04:13:22;;;;;;;45.47;8.40;;;;;;;1.04;86.98;102000.59;5082922;28;20032;-61
2021/03/01 04:15:48;;;;;;;55.42;9.23;;;;;;;1.04;86.53;101998.91;5082594;28;20032;-61
2021/03/01 04:18:22;;;;;;;40.88;8.30;;;;;;;1.02;86.46;101992.84;5082929;28;20027;-61
2021/03/01 04:20:49;;;;;;;38.10;7.85;;;;;;;1.05;86.35;102002.34;5082777;28;20082;-61
2021/03/01 04:23:17;;;;;;;47.47;8.55;;;;;;;0.99;86.05;102006.31;5082593;28;20438;-61
2021/03/01 04:25:46;;;;;;;41.58;9.05;;;;;;;0.92;86.15;101996.56;5082505;28;20020;-61
2021/03/01 04:28:13;;;;;;;42.17;7.40;;;;;;;0.96;86.27;102003.59;5082629;28;20024;-60
2021/03/01 04:30:39;;;;;;;38.20;6.80;;;;;;;1.02;86.41;101999.63;5082666;28;20080;-60
2021/03/01 04:33:06;;;;;;;32.58;5.70;;;;;;;1.05;86.85;102003.25;5085690;28;20066;-61
2021/03/01 04:35:32;;;;;;;33.85;6.70;;;;;;;1.10;86.78;101996.69;5086217;28;20025;-60
2021/03/01 04:37:57;;;;;;;36.80;6.50;;;;;;;1.17;87.07;101997.94;5086135;28;20111;-60
2021/03/01 04:40:23;;;;;;;38.17;7.13;;;;;;;1.20;86.98;102003.22;5086296;28;20039;-60
2021/03/01 04:42:49;;;;;;;31.02;6.53;;;;;;;1.19;87.16;101998.91;5067793;28;20025;-61
2021/03/01 04:45:17;;;;;;;33.58;7.60;;;;;;;1.23;86.92;101993.16;5085954;28;20084;-60
2021/03/01 04:47:44;;;;;;;32.75;5.72;;;;;;;1.27;86.72;101995.88;5085804;28;20524;-61
2021/03/01 04:50:13;;;;;;;41.00;6.45;;;;;;;1.28;87.14;102001.09;5084902;28;20021;-60
2021/03/01 04:52:40;;;;;;;35.33;6.72;;;;;;;1.29;86.96;101994.28;5085728;28;20037;-61
2021/03/01 04:55:07;;;;;;;30.15;6.50;;;;;;;1.31;86.89;101990.16;5067700;28;20020;-61
2021/03/01 04:57:33;;;;;;;50.47;7.10;;;;;;;1.33;86.98;101993.66;5085597;28;20032;-61
2021/03/01 04:59:59;;;;;;;29.42;5.70;;;;;;;1.35;86.96;101998.09;5085929;28;20035;-60
2021/03/01 05:02:26;;;;;;;32.35;5.15;;;;;;;1.35;86.83;101997.19;5085814;28;20031;-60
2021/03/01 05:04:52;;;;;;;29.92;6.20;;;;;;;1.35;87.04;102002.31;5067773;28;20054;-60
2021/03/01 05:07:20;;;;;;;37.58;6.55;;;;;;;1.34;86.88;101991.19;5085625;28;20028;-59
2021/03/01 05:09:46;;;;;;;33.65;6.03;;;;;;;1.39;86.77;102001.66;5085737;28;20030;-60
2021/03/01 05:12:12;;;;;;;32.65;6.30;;;;;;;1.41;86.40;102002.66;5085463;28;20050;-60
2021/03/01 05:14:37;;;;;;;32.92;5.07;;;;;;;1.35;86.53;102003.19;5085663;28;20088;-60
2021/03/01 05:17:03;;;;;;;38.00;7.07;;;;;;;1.34;86.63;102006.53;5067309;28;20024;-60
2021/03/01 05:19:30;;;;;;;35.08;5.47;;;;;;;1.30;86.50;102013.97;5085579;28;20208;-60
2021/03/01 05:21:56;;;;;;;33.83;5.22;;;;;;;1.26;86.78;102017.16;5085281;28;20021;-60
2021/03/01 05:24:21;;;;;;;37.20;7.40;;;;;;;1.21;86.89;102019.47;5085712;28;20063;-60
2021/03/01 05:26:46;;;;;;;37.45;7.20;;;;;;;1.21;86.67;102025.47;5085314;28;20050;-60
2021/03/01 05:29:12;;;;;;;42.03;6.10;;;;;;;1.23;86.68;102021.28;5085312;28;20083;-60
2021/03/01 05:31:38;;;;;;;40.00;6.63;;;;;;;1.22;86.78;102021.22;5085173;28;20033;-60
2021/03/01 05:34:04;;;;;;;47.22;6.75;;;;;;;1.23;86.73;102028.97;5085541;28;20021;-60
2021/03/01 05:36:29;;;;;;;39.35;6.95;;;;;;;1.22;86.58;102024.66;5085495;28;20107;-61
2021/03/01 05:38:54;;;;;;;51.22;7.45;;;;;;;1.21;86.74;102024.56;5085300;28;20099;-60
2021/03/01 05:41:23;;;;;;;28.40;5.93;;;;;;;1.19;86.82;102016.81;5085027;28;20531;-62
2021/03/01 05:43:48;;;;;;;45.20;5.60;;;;;;;1.19;86.98;102021.94;5085252;28;20021;-61
2021/03/01 05:46:15;;;;;;;41.13;7.78;;;;;;;1.18;87.08;102025.25;5085186;28;20032;-61
2021/03/01 05:48:41;;;;;;;34.40;5.57;;;;;;;1.19;87.00;102019.38;5085137;28;20058;-60
2021/03/01 05:51:08;;;;;;;55.88;7.70;;;;;;;1.21;87.12;102030.59;5085182;28;20028;-61
2021/03/01 05:53:41;;;;;;;55.28;7.82;;;;;;;1.21;87.05;102022.91;5085407;28;20491;-61
2021/03/01 05:56:07;;;;;;;40.40;7.90;;;;;;;1.22;86.98;102022.09;5085011;28;20051;-61
2021/03/01 05:58:34;;;;;;;30.73;5.78;;;;;;;1.25;86.86;102018.81;5085054;28;20028;-60
2021/03/01 06:01:01;;;;;;;43.30;7.60;;;;;;;1.26;87.11;102023.16;5085138;28;20022;-61
2021/03/01 06:03:30;;;;;;;42.70;8.15;;;;;;;1.27;86.97;102018.91;5085024;28;20158;-61
2021/03/01 06:05:56;;;;;;;39.25;7.10;;;;;;;1.31;86.97;102018.31;5085129;28;20080;-60
2021/03/01 06:08:26;;;;;;;40.30;6.55;;;;;;;1.32;87.12;102023.50;5084928;28;20031;-61
2021/03/01 06:10:58;;;;;;;43.75;8.25;;;;;;;1.32;87.33;102017.50;5084380;28;20020;-62
2021/03/01 06:13:28;;;;;;;34.05;6.30;;;;;;;1.37;87.08;102023.75;5084863;28;20036;-62
2021/03/01 06:15:54;;;;;;;37.40;6.72;;;;;;;1.40;87.04;102021.38;5083516;28;20024;-60
2021/03/01 06:18:21;;;;;;;48.15;6.38;;;;;;;1.46;86.84;102016.59;5084632;28;20070;-60
2021/03/01 06:20:46;;;;;;;32.67;6.93;;;;;;;1.47;86.83;102007.25;5084562;28;20060;-60
2021/03/01 06:23:27;;;;;;;31.63;6.78;;;;;;;1.47;86.89;102002.97;5084503;28;20126;-61
2021/03/01 06:25:52;;;;;;;53.85;9.70;;;;;;;1.54;86.94;102003.31;5084323;28;20093;-60
2021/03/01 06:28:27;;;;;;;34.10;5.07;;;;;;;1.55;87.09;101989.75;5084159;28;20502;-61
2021/03/01 06:30:52;;;;;;;40.40;7.28;;;;;;;1.57;87.02;101995.81;5084486;28;20028;-61
2021/03/01 06:33:18;;;;;;;35.97;5.90;;;;;;;1.58;87.07;101993.31;5084347;28;20060;-61
2021/03/01 06:35:44;;;;;;;44.58;6.45;;;;;;;1.66;87.05;101996.28;5084478;28;20107;-61
2021/03/01 06:38:18;;;;;;;53.90;7.68;;;;;;;1.67;87.14;102010.00;5084209;28;20330;-61
2021/03/01 06:41:17;;;;;;;39.38;8.55;;;;;;;1.73;87.02;102011.22;5084407;28;20346;-61
2021/03/01 06:44:02;;;;;;;36.17;8.10;;;;;;;1.78;86.93;102013.13;5078882;28;20036;-61
2021/03/01 06:46:30;;;;;;;39.80;9.23;;;;;;;1.82;86.98;102012.50;5083998;28;20028;-61
2021/03/01 06:48:56;;;;;;;59.00;7.88;;;;;;;1.94;87.01;102014.84;5084059;28;20083;-61
2021/03/01 06:51:21;;;;;;;42.50;6.85;;;;;;;2.05;87.07;102025.66;5083953;28;20036;-60
2021/03/01 06:53:58;;;;;;;43.63;7.82;;;;;;;2.27;87.37;102019.97;5083894;28;20311;-60
2021/03/01 06:56:38;;;;;;;46.20;7.72;;;;;;;2.78;87.29;102013.97;5082713;28;20059;-60
2021/03/01 06:59:18;;;;;;;34.40;6.05;;;;;;;3.36;87.11;102014.16;5084138;28;20048;-61
2021/03/01 07:01:48;;;;;;;33.00;7.38;;;;;;;3.87;86.34;102010.50;5083806;28;20017;-61
2021/03/01 07:04:25;;;;;;;36.67;6.65;;;;;;;4.42;85.71;102020.59;5082678;28;20139;-61
2021/03/01 07:06:52;;;;;;;23.48;4.40;;;;;;;4.87;85.27;102022.47;5083854;28;20054;-61
2021/03/01 07:09:26;;;;;;;15.55;4.18;;;;;;;5.38;83.92;102009.88;5083895;28;20554;-62
2021/03/01 07:11:52;;;;;;;16.33;4.20;;;;;;;5.83;81.95;102015.00;5083619;28;20036;-63
2021/03/01 07:14:20;;;;;;;22.65;4.30;;;;;;;6.22;81.08;102019.84;5083755;28;20107;-63
2021/03/01 07:16:52;;;;;;;25.65;4.57;;;;;;;6.62;80.79;102021.25;5083554;28;20052;-61
2021/03/01 07:19:18;;;;;;;24.80;4.68;;;;;;;7.07;78.70;102022.72;5083806;28;20077;-64
2021/03/01 07:21:46;;;;;;;25.73;6.07;;;;;;;7.43;77.48;102020.34;5083794;28;20069;-63
2021/03/01 07:24:16;;;;;;;23.42;3.88;;;;;;;7.80;76.49;102030.94;5083744;28;20021;-61
2021/03/01 07:26:44;;;;;;;20.75;4.13;;;;;;;8.14;75.03;102031.03;5083410;28;20021;-61
2021/03/01 07:29:12;;;;;;;15.98;3.40;;;;;;;8.38;72.74;102022.19;5083540;28;20052;-60
2021/03/01 07:31:42;;;;;;;16.42;3.58;;;;;;;8.59;71.64;102019.34;5083726;28;20032;-61
2021/03/01 07:34:09;;;;;;;12.82;3.08;;;;;;;8.57;69.71;102026.16;5083929;28;20126;-61
2021/03/01 07:36:35;;;;;;;17.20;4.10;;;;;;;8.49;69.38;102027.63;5083631;28;20048;-62
2021/03/01 07:39:02;;;;;;;9.48;4.13;;;;;;;8.48;68.41;102041.44;5083672;28;20027;-63
2021/03/01 07:41:29;;;;;;;18.20;3.95;;;;;;;8.40;69.16;102049.00;5083459;28;20024;-63
2021/03/01 07:43:55;;;;;;;16.70;3.83;;;;;;;8.57;69.78;102053.75;5083825;28;20433;-64
2021/03/01 07:46:26;;;;;;;15.73;4.97;;;;;;;8.74;68.12;102049.91;5083545;28;20257;-62
2021/03/01 07:48:52;;;;;;;16.83;3.42;;;;;;;8.80;67.11;102054.38;5083533;28;20055;-62
2021/03/01 07:51:42;;;;;;;19.05;3.95;;;;;;;9.00;67.77;102059.16;5083488;28;20024;-64
2021/03/01 07:54:08;;;;;;;15.45;3.38;;;;;;;9.27;66.31;102065.84;5083568;28;20027;-63
2021/03/01 07:56:37;;;;;;;15.55;3.70;;;;;;;9.32;65.91;102060.78;5083156;28;20035;-64
2021/03/01 07:59:05;;;;;;;16.00;3.67;;;;;;;9.46;65.31;102066.28;5083479;28;20028;-63
2021/03/01 08:01:31;;;;;;;15.98;3.50;;;;;;;9.57;64.03;102075.19;5083415;28;20044;-64
2021/03/01 08:03:57;;;;;;;16.92;4.32;;;;;;;9.58;63.93;102074.38;5083438;28;20392;-65
2021/03/01 08:06:24;;;;;;;21.40;4.63;;;;;;;9.58;63.16;102087.34;5083862;28;20048;-63
2021/03/01 08:08:53;;;;;;;12.63;3.42;;;;;;;9.53;63.07;102086.34;5087303;28;20024;-63
2021/03/01 08:11:37;;;;;;;14.70;3.72;;;;;;;9.58;64.09;102094.22;5087109;28;20021;-64
2021/03/01 08:14:04;;;;;;;17.77;3.85;;;;;;;9.68;63.20;102090.97;5087646;28;20443;-64
2021/03/01 08:16:29;;;;;;;16.70;3.70;;;;;;;9.70;62.35;102097.09;5087099;28;20049;-64
2021/03/01 08:18:57;;;;;;;20.02;4.20;;;;;;;9.74;62.98;102098.03;5087042;28;20078;-64
2021/03/01 08:21:23;;;;;;;17.15;3.33;;;;;;;9.97;63.30;102106.31;5085955;28;20104;-63
2021/03/01 08:23:49;;;;;;;14.50;3.83;;;;;;;10.18;60.78;102102.44;5087108;28;20520;-64
2021/03/01 08:26:32;;;;;;;15.48;3.85;;;;;;;10.33;61.25;102099.28;5086859;28;20048;-64
2021/03/01 08:29:19;;;;;;;19.98;3.95;;;;;;;10.56;60.59;102103.22;5068902;28;20067;-64
2021/03/01 08:31:45;;;;;;;16.70;3.15;;;;;;;10.73;60.40;102109.59;5086747;28;20021;-62
2021/03/01 08:34:31;;;;;;;15.57;3.88;;;;;;;10.71;59.77;102106.09;5087084;28;20418;-63
2021/03/01 08:36:59;;;;;;;17.80;3.47;;;;;;;10.78;59.62;102112.28;5086926;28;20028;-64
2021/03/01 08:39:55;;;;;;;14.55;3.60;;;;;;;10.74;59.31;102110.44;5086849;28;20017;-63
2021/03/01 08:42:43;;;;;;;18.25;4.18;;;;;;;10.83;59.68;102115.81;5085214;28;20521;-64
2021/03/01 08:45:09;;;;;;;14.98;4.20;;;;;;;10.97;59.40;102099.59;5086759;28;20036;-64
2021/03/01 08:47:46;;;;;;;14.80;3.47;;;;;;;11.02;58.82;102105.75;5086501;28;20025;-63
2021/03/01 08:50:12;;;;;;;12.40;3.95;;;;;;;11.07;58.49;102111.88;5086644;28;20024;-63
2021/03/01 08:52:38;;;;;;;23.33;4.53;;;;;;;11.06;58.16;102112.75;5086421;28;20056;-64
2021/03/01 08:55:07;;;;;;;19.27;4.43;;;;;;;11.01;58.59;102125.66;5068520;28;20491;-65
2021/03/01 08:57:32;;;;;;;20.02;3.92;;;;;;;10.99;57.93;102119.56;5085995;28;20079;-64
2021/03/01 09:00:08;;;;;;;17.58;4.03;;;;;;;10.90;58.29;102122.88;5086483;28;20165;-64
2021/03/01 09:02:33;;;;;;;18.65;4.60;;;;;;;10.85;58.64;102129.72;5086210;28;20027;-63
2021/03/01 09:05:06;;;;;;;14.73;3.85;;;;;;;10.95;58.39;102130.75;5086483;28;20025;-63
2021/03/01 09:07:45;;;;;;;16.02;3.20;;;;;;;10.97;57.66;102133.38;5085755;28;20016;-63
2021/03/01 09:10:12;;;;;;;14.63;3.45;;;;;;;10.95;57.82;102133.38;5086212;28;20028;-63
2021/03/01 09:12:38;;;;;;;16.88;4.45;;;;;;;11.05;57.84;102137.00;5085728;28;20042;-63
2021/03/01 09:15:06;;;;;;;19.60;4.15;;;;;;;11.12;57.38;102117.16;5086171;28;20041;-62
2021/03/01 09:17:32;;;;;;;15.95;3.78;;;;;;;11.37;57.86;102128.84;5085494;28;20504;-64
2021/03/01 09:19:58;;;;;;;13.80;2.92;;;;;;;11.54;56.06;102123.03;5086072;28;20043;-66
2021/03/01 09:22:24;;;;;;;13.60;3.45;;;;;;;11.44;56.14;102124.63;5086008;28;20016;-65
2021/03/01 09:24:49;;;;;;;18.25;4.47;;;;;;;11.43;56.36;102132.41;5086020;28;20020;-67
2021/03/01 09:27:30;;;;;;;21.38;3.80;;;;;;;11.53;55.31;102127.38;5085502;28;20033;-66
2021/03/01 09:30:06;;;;;;;14.00;3.22;;;;;;;11.44;55.37;102127.22;5085654;28;20059;-67
2021/03/01 09:32:31;;;;;;;18.58;3.85;;;;;;;11.48;55.96;102131.63;5085583;28;20025;-67
2021/03/01 09:34:56;;;;;;;15.35;3.72;;;;;;;11.53;55.11;102129.09;5067734;28;20025;-66
2021/03/01 09:37:25;;;;;;;14.70;4.30;;;;;;;11.54;55.62;102133.44;5084951;28;20028;-65
2021/03/01 09:39:51;;;;;;;17.63;4.97;;;;;;;11.52;54.76;102140.34;5085804;28;20021;-65
2021/03/01 09:42:19;;;;;;;17.40;3.97;;;;;;;11.48;55.57;102139.44;5085260;28;20406;-68
2021/03/01 09:44:45;;;;;;;17.48;4.13;;;;;;;11.63;55.29;102135.31;5067527;28;20036;-67
2021/03/01 09:47:11;;;;;;;15.93;4.20;;;;;;;11.75;55.10;102138.13;5085508;28;20024;-66
2021/03/01 09:49:40;;;;;;;20.88;3.20;;;;;;;11.80;54.76;102134.69;5085453;28;20016;-68
2021/03/01 09:52:06;;;;;;;17.77;3.97;;;;;;;11.85;54.31;102139.09;5085296;28;20288;-67
2021/03/01 09:54:33;;;;;;;16.25;4.60;;;;;;;11.82;54.39;102141.66;5067371;28;20020;-67
2021/03/01 09:57:08;;;;;;;14.85;3.17;;;;;;;11.74;54.60;102143.28;5084896;28;20103;-67
2021/03/01 09:59:39;;;;;;;15.10;3.53;;;;;;;11.75;54.53;102147.63;5085162;28;20054;-68
2021/03/01 10:02:15;;;;;;;11.77;3.67;;;;;;;11.64;54.46;102147.47;5067007;28;20325;-68
2021/03/01 10:04:41;;;;;;;16.40;4.57;;;;;;;11.31;54.78;102149.56;5085340;28;20029;-68
2021/03/01 10:07:20;;;;;;;15.25;4.03;;;;;;;11.18;55.38;102139.81;5085043;28;20273;-68
2021/03/01 10:09:47;;;;;;;11.07;3.75;;;;;;;11.08;55.79;102152.66;5085014;28;20028;-68
2021/03/01 10:12:13;;;;;;;11.10;4.03;;;;;;;10.96;56.42;102158.50;5084609;28;20103;-69
2021/03/01 10:14:39;;;;;;;19.13;5.57;;;;;;;11.12;56.07;102151.84;5085101;28;20052;-69
2021/03/01 10:17:23;;;;;;;10.82;3.63;;;;;;;11.67;55.65;102151.84;5084901;28;20066;-70
2021/03/01 10:19:50;;;;;;;13.63;3.67;;;;;;;12.45;53.36;102152.91;5085002;28;20058;-70
2021/03/01 10:22:15;;;;;;;17.88;3.80;;;;;;;13.05;51.53;102154.41;5084698;28;20479;-63
2021/03/01 10:24:50;;;;;;;13.07;3.83;;;;;;;13.50;50.48;102155.69;5084858;28;20495;-62
2021/03/01 10:27:16;;;;;;;14.48;3.80;;;;;;;13.67;49.30;102164.50;5066329;28;20020;-63
2021/03/01 10:29:49;;;;;;;14.95;4.13;;;;;;;13.51;48.93;102167.00;5083587;28;20058;-63
2021/03/01 10:32:23;;;;;;;14.05;4.47;;;;;;;12.89;49.77;102155.13;5084248;28;20449;-62
2021/03/01 10:34:49;;;;;;;13.23;3.92;;;;;;;12.34;50.85;102158.88;5084577;28;20024;-62
2021/03/01 10:37:16;;;;;;;15.38;3.97;;;;;;;12.01;52.15;102163.59;5084476;28;20024;-63
2021/03/01 10:39:43;;;;;;;17.02;4.45;;;;;;;11.66;52.67;102156.19;5084396;28;20084;-63
2021/03/01 10:42:17;;;;;;;17.30;4.25;;;;;;;11.46;53.52;102161.06;5084183;28;20024;-63
2021/03/01 10:45:03;;;;;;;13.60;4.20;;;;;;;11.71;54.19;102171.88;5084687;28;20025;-63
2021/03/01 10:47:30;;;;;;;15.55;3.70;;;;;;;11.65;53.13;102165.72;5084130;28;20047;-63
2021/03/01 10:50:02;;;;;;;14.07;4.20;;;;;;;11.37;54.08;102170.44;5084325;28;20044;-64
2021/03/01 10:52:28;;;;;;;;;;;;;;;11.29;54.29;102177.28;5066619;28;20029;-63
2021/03/01 10:54:55;;;;;;;13.52;3.75;;;;;;;10.93;54.81;102175.78;5084045;28;19932;-62
2021/03/01 10:57:22;;;;;;;10.73;3.72;;;;;;;10.49;55.86;102167.13;5083947;28;20028;-63
2021/03/01 10:59:51;;;;;;;15.23;4.60;;;;;;;10.00;57.25;102170.41;5084185;28;20050;-62
2021/03/01 11:02:17;;;;;;;13.13;4.13;;;;;;;9.87;58.08;102171.84;5084173;28;20028;-62
2021/03/01 11:04:42;;;;;;;18.95;4.63;;;;;;;9.66;58.88;102181.72;5084211;28;20025;-62
2021/03/01 11:07:08;;;;;;;21.67;4.97;;;;;;;9.75;59.44;102175.00;5084032;28;20382;-62
2021/03/01 11:09:33;;;;;;;16.10;4.25;;;;;;;10.35;58.63;102175.47;5084019;28;20040;-62
2021/03/01 11:11:59;;;;;;;14.65;4.10;;;;;;;10.69;56.92;102169.25;5083629;28;20080;-63
2021/03/01 11:14:24;;;;;;;11.10;3.35;;;;;;;10.32;56.53;102159.81;5084034;28;20027;-62
2021/03/01 11:16:53;;;;;;;15.13;4.55;;;;;;;9.82;57.77;102173.44;5083699;28;20039;-62
2021/03/01 11:19:18;;;;;;;11.68;4.63;;;;;;;9.40;58.82;102170.72;5083810;28;20025;-62
2021/03/01 11:21:44;;;;;;;16.77;5.88;;;;;;;9.05;59.59;102172.47;5065517;28;20122;-62
2021/03/01 11:24:10;;;;;;;14.35;4.97;;;;;;;8.78;60.87;102170.00;5083655;28;20264;-62
2021/03/01 11:26:36;;;;;;;13.50;4.80;;;;;;;8.72;61.42;102165.50;5083647;28;20024;-61